Time;durP1;ratioP1;P1;durP2;ratioP2;P2;SDS_P1;SDS_P2;PMS_P1;PMS_P2;Temp;Humidity;BMP_temperature;BMP_pressure;BME280_temperature;BME280_humidity;BME280_pressure;Samples;Min_cycle;Max_cycle;Signal;HPM_P1;HPM_P2
2023/09/19 00:00:49;;;;;;;1.25;0.70;;;20.30;96.30;;;;;;950815;146;27339;-74
2023/09/19 00:03:16;;;;;;;3.05;1.05;;;20.30;96.20;;;;;;955621;146;27312;-74
2023/09/19 00:05:45;;;;;;;1.75;1.00;;;20.30;96.20;;;;;;935641;149;27401;-75
2023/09/19 00:08:13;;;;;;;1.07;0.90;;;20.30;96.00;;;;;;929400;149;27382;-73
2023/09/19 00:10:39;;;;;;;1.20;0.82;;;20.20;96.00;;;;;;933458;151;27344;-74
2023/09/19 00:13:07;;;;;;;1.02;0.95;;;20.20;96.00;;;;;;947444;149;27332;-73
2023/09/19 00:15:37;;;;;;;2.77;0.90;;;20.20;96.10;;;;;;936209;149;27497;-75
2023/09/19 00:18:04;;;;;;;1.45;1.00;;;20.20;96.00;;;;;;932961;149;27389;-74
2023/09/19 00:20:30;;;;;;;1.27;1.10;;;20.20;96.30;;;;;;935765;148;27459;-74
2023/09/19 00:22:59;;;;;;;0.90;0.80;;;20.10;96.00;;;;;;934620;149;27299;-73
2023/09/19 00:25:23;;;;;;;1.92;1.32;;;20.10;96.10;;;;;;934464;148;27350;-75
2023/09/19 00:27:51;;;;;;;1.20;0.93;;;20.10;96.30;;;;;;928972;150;27408;-74
2023/09/19 00:30:19;;;;;;;1.50;0.80;;;20.00;96.40;;;;;;932154;150;27408;-73
2023/09/19 00:32:43;;;;;;;1.10;0.72;;;20.00;96.60;;;;;;913187;151;27348;-76
2023/09/19 00:35:10;;;;;;;0.95;0.82;;;20.00;96.60;;;;;;924197;151;27389;-75
2023/09/19 00:37:36;;;;;;;1.00;0.90;;;19.90;96.60;;;;;;930608;151;27501;-76
2023/09/19 00:40:04;;;;;;;0.80;0.80;;;19.90;96.80;;;;;;913880;153;27411;-76
2023/09/19 00:42:29;;;;;;;1.20;1.10;;;19.80;97.00;;;;;;930644;149;27226;-76
2023/09/19 00:44:56;;;;;;;0.90;0.90;;;19.80;97.30;;;;;;914502;152;27270;-76
2023/09/19 00:47:22;;;;;;;1.22;1.00;;;19.80;97.80;;;;;;923667;151;27367;-75
2023/09/19 00:49:49;;;;;;;3.05;1.07;;;19.70;98.20;;;;;;939222;149;27328;-76
2023/09/19 00:52:16;;;;;;;1.10;0.88;;;19.70;98.60;;;;;;928189;151;27364;-76
2023/09/19 00:54:42;;;;;;;1.00;0.90;;;19.70;98.80;;;;;;922257;150;27338;-76
2023/09/19 00:57:09;;;;;;;2.65;0.90;;;19.70;99.00;;;;;;930175;150;27380;-75
2023/09/19 00:59:35;;;;;;;1.10;1.00;;;19.70;99.10;;;;;;931203;152;27350;-76
2023/09/19 01:02:02;;;;;;;0.93;0.93;;;19.80;99.40;;;;;;931726;152;27457;-76
2023/09/19 01:04:28;;;;;;;0.78;0.78;;;19.80;99.40;;;;;;920392;150;27420;-76
2023/09/19 01:06:55;;;;;;;1.50;1.10;;;19.80;99.40;;;;;;925787;147;27336;-76
2023/09/19 01:09:21;;;;;;;1.45;1.20;;;19.90;99.30;;;;;;933079;150;27498;-76
2023/09/19 01:11:48;;;;;;;2.77;0.98;;;19.90;99.40;;;;;;932892;149;27384;-77
2023/09/19 01:14:29;;;;;;;0.98;0.82;;;19.90;99.40;;;;;;934443;149;27341;-77
2023/09/19 01:17:15;;;;;;;2.00;1.27;;;19.90;99.40;;;;;;925572;152;27275;-75
2023/09/19 01:20:02;;;;;;;2.25;1.25;;;20.00;99.30;;;;;;918270;150;27375;-76
2023/09/19 01:22:54;;;;;;;1.05;1.00;;;20.00;99.10;;;;;;948243;148;27329;-76
2023/09/19 01:25:47;;;;;;;2.22;0.98;;;20.00;98.90;;;;;;932353;150;27383;-76
2023/09/19 01:28:41;;;;;;;0.75;0.70;;;20.00;98.60;;;;;;931736;151;27520;-76
2023/09/19 01:31:09;;;;;;;1.00;0.85;;;20.00;98.40;;;;;;932212;150;27457;-77
2023/09/19 01:34:03;;;;;;;1.72;0.90;;;19.90;98.40;;;;;;930459;150;27357;-77
2023/09/19 01:36:25;;;;;;;1.27;1.20;;;19.90;98.80;;;;;;930967;150;27662;-75
2023/09/19 01:38:52;;;;;;;1.12;1.00;;;19.80;99.00;;;;;;930360;150;27394;-76
2023/09/19 01:41:19;;;;;;;1.98;1.15;;;19.80;99.40;;;;;;937234;150;27288;-76
2023/09/19 01:43:45;;;;;;;1.07;1.02;;;19.80;99.70;;;;;;928341;149;27321;-76
2023/09/19 01:46:14;;;;;;;1.25;1.15;;;19.80;99.90;;;;;;947518;147;27283;-79
2023/09/19 01:48:42;;;;;;;1.25;1.00;;;19.80;99.90;;;;;;935619;149;27435;-79
2023/09/19 01:51:07;;;;;;;1.30;1.17;;;19.90;99.90;;;;;;933024;147;27453;-78
2023/09/19 01:53:34;;;;;;;1.90;1.20;;;19.90;99.90;;;;;;936133;149;27336;-81
2023/09/19 01:56:01;;;;;;;2.17;1.98;;;19.90;99.90;;;;;;942945;149;27292;-78
2023/09/19 01:58:45;;;;;;;2.33;1.45;;;20.00;99.90;;;;;;942580;148;27323;-75
2023/09/19 02:01:13;;;;;;;1.17;1.00;;;20.00;99.90;;;;;;930519;149;27309;-81
2023/09/19 02:03:39;;;;;;;1.42;1.10;;;20.00;99.90;;;;;;920362;152;27433;-77
2023/09/19 02:06:05;;;;;;;1.30;1.20;;;20.10;99.90;;;;;;944238;147;27428;-80
2023/09/19 02:08:33;;;;;;;1.50;1.40;;;20.10;99.90;;;;;;926131;150;27409;-75
2023/09/19 02:10:59;;;;;;;1.45;1.35;;;20.10;99.90;;;;;;944507;147;27414;-80
2023/09/19 02:13:26;;;;;;;1.30;1.20;;;20.20;99.90;;;;;;935834;149;27335;-81
2023/09/19 02:15:51;;;;;;;2.35;1.22;;;20.20;99.90;;;;;;937655;149;27338;-81
2023/09/19 02:18:18;;;;;;;2.27;1.20;;;20.20;99.90;;;;;;931447;150;27452;-78
2023/09/19 02:20:45;;;;;;;1.32;1.20;;;20.20;99.80;;;;;;930649;150;27464;-76
2023/09/19 02:23:11;;;;;;;2.75;1.57;;;20.20;99.70;;;;;;931774;150;27357;-81
2023/09/19 02:25:40;;;;;;;1.17;0.95;;;20.20;99.70;;;;;;938454;146;27315;-81
2023/09/19 02:28:05;;;;;;;2.25;1.60;;;20.20;99.60;;;;;;941360;150;27491;-80
2023/09/19 02:30:31;;;;;;;2.50;1.37;;;20.20;99.60;;;;;;938620;149;27387;-75
2023/09/19 02:32:57;;;;;;;1.50;1.40;;;20.20;99.70;;;;;;940584;150;27408;-81
2023/09/19 02:35:26;;;;;;;1.75;1.30;;;20.20;99.70;;;;;;937799;150;27334;-80
2023/09/19 02:37:51;;;;;;;1.15;1.00;;;20.20;99.70;;;;;;939631;150;27796;-79
2023/09/19 02:40:21;;;;;;;2.55;1.67;;;20.20;99.60;;;;;;935838;150;27338;-79
2023/09/19 02:42:49;;;;;;;1.00;1.00;;;20.10;99.60;;;;;;932667;150;27471;-80
2023/09/19 02:45:17;;;;;;;5.22;1.37;;;20.10;99.40;;;;;;936490;149;27375;-80
2023/09/19 02:47:43;;;;;;;1.30;1.20;;;20.10;99.10;;;;;;939493;150;27369;-81
2023/09/19 02:50:11;;;;;;;2.15;1.30;;;20.10;99.40;;;;;;939204;150;27868;-76
2023/09/19 02:52:36;;;;;;;2.33;1.55;;;20.00;99.40;;;;;;934009;150;27459;-79
2023/09/19 02:55:04;;;;;;;2.80;1.67;;;20.00;99.30;;;;;;932184;150;27331;-81
2023/09/19 02:57:29;;;;;;;1.87;1.37;;;19.90;99.40;;;;;;931269;150;27345;-81
2023/09/19 02:59:56;;;;;;;2.17;1.30;;;19.80;99.90;;;;;;927391;150;27421;-79
2023/09/19 03:02:24;;;;;;;2.10;1.90;;;19.80;99.70;;;;;;933916;150;27450;-81
2023/09/19 03:04:49;;;;;;;1.55;1.37;;;19.70;99.90;;;;;;934486;150;28366;-81
2023/09/19 03:07:15;;;;;;;1.75;1.52;;;19.70;99.90;;;;;;930941;150;27343;-77
2023/09/19 03:09:42;;;;;;;1.35;1.25;;;19.60;99.90;;;;;;931723;150;27437;-79
2023/09/19 03:12:08;;;;;;;1.37;1.27;;;19.60;99.90;;;;;;933962;150;27362;-82
2023/09/19 03:14:35;;;;;;;1.77;1.50;;;19.50;99.90;;;;;;939876;150;27366;-82
2023/09/19 03:17:04;;;;;;;1.50;1.35;;;19.50;99.90;;;;;;937920;150;27519;-79
2023/09/19 03:19:28;;;;;;;1.40;1.30;;;19.40;99.90;;;;;;931463;150;28082;-81
2023/09/19 03:21:57;;;;;;;2.52;1.50;;;19.40;99.90;;;;;;931130;150;27359;-74
2023/09/19 03:24:21;;;;;;;1.72;1.62;;;19.30;99.90;;;;;;931799;150;27456;-77
2023/09/19 03:26:48;;;;;;;2.17;1.40;;;19.30;99.90;;;;;;935397;149;27463;-79
2023/09/19 03:29:15;;;;;;;3.75;1.57;;;19.20;99.90;;;;;;941274;149;27372;-80
2023/09/19 03:31:41;;;;;;;1.37;1.27;;;19.20;99.90;;;;;;941803;148;27336;-78
2023/09/19 03:34:08;;;;;;;1.40;1.30;;;19.10;99.90;;;;;;938967;149;27364;-80
2023/09/19 03:36:36;;;;;;;2.67;1.55;;;19.10;99.90;;;;;;941787;148;28324;-81
2023/09/19 03:39:04;;;;;;;1.45;1.32;;;19.00;99.90;;;;;;934965;150;27367;-80
2023/09/19 03:41:29;;;;;;;2.90;1.62;;;18.90;99.90;;;;;;935133;151;27375;-80
2023/09/19 03:43:55;;;;;;;2.02;1.60;;;18.90;99.90;;;;;;944737;147;27316;-78
2023/09/19 03:46:22;;;;;;;1.50;1.40;;;18.80;99.90;;;;;;944738;146;27308;-77
2023/09/19 03:48:48;;;;;;;1.50;1.40;;;18.80;99.90;;;;;;951005;146;27429;-78
2023/09/19 03:51:15;;;;;;;1.95;1.57;;;18.70;99.90;;;;;;954495;146;27344;-81
2023/09/19 03:53:42;;;;;;;2.17;1.52;;;18.70;99.90;;;;;;956104;146;27308;-79
2023/09/19 03:56:08;;;;;;;1.98;1.65;;;18.60;99.90;;;;;;957503;146;27369;-80
2023/09/19 03:58:39;;;;;;;1.50;1.37;;;18.60;99.90;;;;;;928763;150;27341;-77
2023/09/19 04:01:01;;;;;;;1.92;1.50;;;18.50;99.90;;;;;;954715;146;27323;-77
2023/09/19 04:03:34;;;;;;;2.05;1.57;;;18.50;99.90;;;;;;951234;146;27349;-76
2023/09/19 04:05:55;;;;;;;1.60;1.50;;;18.50;99.90;;;;;;949124;146;27396;-74
2023/09/19 04:08:21;;;;;;;1.57;1.47;;;18.50;99.90;;;;;;944719;146;27385;-74
2023/09/19 04:10:48;;;;;;;1.98;1.50;;;18.40;99.90;;;;;;953446;146;27467;-75
2023/09/19 04:13:15;;;;;;;2.87;1.62;;;18.40;99.90;;;;;;942901;149;27903;-74
2023/09/19 04:15:41;;;;;;;1.82;1.65;;;18.40;99.90;;;;;;942457;149;27467;-75
2023/09/19 04:18:08;;;;;;;1.67;1.50;;;18.30;99.90;;;;;;942415;149;27428;-73
2023/09/19 04:20:34;;;;;;;2.30;1.37;;;18.30;99.90;;;;;;938711;147;27330;-75
2023/09/19 04:23:01;;;;;;;2.33;1.55;;;18.30;99.90;;;;;;946661;146;27426;-74
2023/09/19 04:25:27;;;;;;;1.60;1.50;;;18.20;99.90;;;;;;951038;146;27377;-74
2023/09/19 04:27:54;;;;;;;1.65;1.50;;;18.20;99.90;;;;;;951840;147;27351;-74
2023/09/19 04:30:21;;;;;;;1.42;1.32;;;18.20;99.90;;;;;;951111;147;27397;-74
2023/09/19 04:32:50;;;;;;;1.98;1.60;;;18.10;99.90;;;;;;939560;148;27541;-73
2023/09/19 04:35:14;;;;;;;1.60;1.50;;;18.10;99.90;;;;;;937880;149;28710;-74
2023/09/19 04:37:41;;;;;;;1.27;1.17;;;18.10;99.90;;;;;;950182;149;27359;-73
2023/09/19 04:40:19;;;;;;;3.00;1.57;;;18.00;99.90;;;;;;950350;148;27882;-74
2023/09/19 04:42:36;;;;;;;2.12;1.92;;;18.00;99.90;;;;;;947743;149;27444;-73
2023/09/19 04:45:04;;;;;;;2.60;1.50;;;18.00;99.90;;;;;;950661;147;27317;-73
2023/09/19 04:47:29;;;;;;;1.47;1.37;;;17.90;99.90;;;;;;949933;149;27250;-74
2023/09/19 04:49:58;;;;;;;1.40;1.30;;;17.90;99.90;;;;;;950673;147;27740;-73
2023/09/19 04:52:23;;;;;;;1.65;1.55;;;17.90;99.90;;;;;;949803;147;27308;-75
2023/09/19 04:54:49;;;;;;;3.00;1.67;;;17.90;99.90;;;;;;950166;149;27367;-73
2023/09/19 04:57:16;;;;;;;1.65;1.55;;;17.80;99.90;;;;;;950961;149;27308;-73
2023/09/19 04:59:43;;;;;;;2.35;1.87;;;17.80;99.90;;;;;;952179;149;27442;-74
2023/09/19 05:02:09;;;;;;;2.60;1.60;;;17.80;99.90;;;;;;956063;146;27393;-74
2023/09/19 05:04:36;;;;;;;2.17;1.37;;;17.80;99.90;;;;;;957059;149;27425;-73
2023/09/19 05:07:03;;;;;;;2.65;1.77;;;17.90;99.90;;;;;;950959;146;27343;-74
2023/09/19 05:09:29;;;;;;;3.12;1.55;;;17.90;99.90;;;;;;951313;148;27351;-74
2023/09/19 05:11:56;;;;;;;1.95;1.60;;;17.90;99.90;;;;;;949383;147;27341;-75
2023/09/19 05:14:22;;;;;;;2.40;1.45;;;18.00;99.90;;;;;;947127;147;27313;-75
2023/09/19 05:16:49;;;;;;;2.10;1.50;;;18.10;99.90;;;;;;950387;149;27470;-80
2023/09/19 05:19:15;;;;;;;2.27;1.40;;;18.10;99.90;;;;;;949512;148;27429;-80
2023/09/19 05:21:42;;;;;;;2.55;1.60;;;18.20;99.90;;;;;;951086;147;27325;-81
2023/09/19 05:24:08;;;;;;;3.42;1.52;;;18.30;99.90;;;;;;951467;146;27414;-76
2023/09/19 05:26:35;;;;;;;2.08;1.55;;;18.30;99.90;;;;;;951370;148;27445;-81
2023/09/19 05:29:03;;;;;;;1.62;1.52;;;18.40;99.90;;;;;;950961;149;27383;-81
2023/09/19 05:31:28;;;;;;;1.92;1.67;;;18.40;99.90;;;;;;950371;149;27341;-80
2023/09/19 05:33:55;;;;;;;2.87;2.10;;;18.40;99.90;;;;;;951211;148;27630;-80
2023/09/19 05:36:21;;;;;;;2.25;1.98;;;18.40;99.90;;;;;;950206;149;27469;-75
2023/09/19 05:38:50;;;;;;;1.75;1.55;;;18.40;99.90;;;;;;940610;148;27344;-78
2023/09/19 05:41:15;;;;;;;2.27;1.65;;;18.50;99.90;;;;;;919498;153;27339;-80
2023/09/19 05:43:41;;;;;;;3.27;1.52;;;18.50;99.90;;;;;;920860;152;27412;-80
2023/09/19 05:46:08;;;;;;;2.62;1.50;;;18.50;99.90;;;;;;913673;153;27379;-77
2023/09/19 05:48:34;;;;;;;1.62;1.40;;;18.50;99.90;;;;;;917152;154;27378;-81
2023/09/19 05:51:03;;;;;;;1.37;1.27;;;18.50;99.90;;;;;;910129;153;27425;-79
2023/09/19 05:53:30;;;;;;;2.80;1.80;;;18.60;99.90;;;;;;934453;151;27275;-80
2023/09/19 05:55:57;;;;;;;1.70;1.35;;;18.60;99.90;;;;;;932175;150;27354;-74
2023/09/19 05:58:23;;;;;;;1.35;1.25;;;18.70;99.90;;;;;;917033;154;27381;-81
2023/09/19 06:00:50;;;;;;;3.37;1.82;;;18.70;99.90;;;;;;948887;147;27320;-80
2023/09/19 06:03:17;;;;;;;4.35;2.52;;;18.80;99.90;;;;;;950079;149;27330;-80
2023/09/19 06:05:43;;;;;;;1.70;1.60;;;18.90;99.90;;;;;;948849;149;27794;-77
2023/09/19 06:08:09;;;;;;;4.00;1.72;;;19.00;99.90;;;;;;951077;148;27352;-81
2023/09/19 06:10:36;;;;;;;2.22;1.50;;;19.00;99.90;;;;;;947463;149;27375;-78
2023/09/19 06:13:05;;;;;;;1.87;1.50;;;19.10;99.90;;;;;;946887;147;27276;-81
2023/09/19 06:15:33;;;;;;;1.87;1.77;;;19.20;99.90;;;;;;950018;147;27435;-80
2023/09/19 06:17:59;;;;;;;2.60;1.75;;;19.30;99.90;;;;;;950128;147;27336;-81
2023/09/19 06:20:28;;;;;;;1.30;1.20;;;19.50;99.90;;;;;;950639;149;27336;-78
2023/09/19 06:22:54;;;;;;;2.47;1.27;;;19.60;99.90;;;;;;949907;147;27231;-81
2023/09/19 06:25:21;;;;;;;5.22;1.82;;;19.70;99.90;;;;;;951035;148;27409;-77
2023/09/19 06:27:52;;;;;;;1.60;1.40;;;19.90;99.90;;;;;;947335;148;27436;-76
2023/09/19 06:30:17;;;;;;;2.00;1.60;;;20.00;99.90;;;;;;949070;149;27303;-77
2023/09/19 06:32:46;;;;;;;1.65;1.45;;;20.10;99.90;;;;;;948710;147;27306;-77
2023/09/19 06:35:13;;;;;;;2.77;2.10;;;20.30;99.90;;;;;;948978;147;27376;-76
2023/09/19 06:37:40;;;;;;;1.80;1.67;;;20.40;99.90;;;;;;944800;149;27425;-76
2023/09/19 06:40:06;;;;;;;2.47;1.65;;;20.50;99.90;;;;;;950327;149;27406;-77
2023/09/19 06:42:32;;;;;;;2.65;1.62;;;20.60;99.90;;;;;;949520;147;27275;-77
2023/09/19 06:44:59;;;;;;;1.60;1.50;;;20.60;99.90;;;;;;949287;147;27303;-76
2023/09/19 06:47:26;;;;;;;1.35;1.25;;;20.70;99.90;;;;;;951438;148;27358;-77
2023/09/19 06:49:52;;;;;;;1.42;1.32;;;20.80;99.90;;;;;;949385;149;27388;-77
2023/09/19 06:52:22;;;;;;;1.87;1.50;;;21.00;99.90;;;;;;950199;148;27334;-77
2023/09/19 06:54:45;;;;;;;1.40;1.30;;;21.10;99.90;;;;;;948845;147;27403;-77
2023/09/19 06:57:13;;;;;;;1.72;1.52;;;21.20;99.90;;;;;;951283;148;27444;-76
2023/09/19 06:59:39;;;;;;;1.92;1.72;;;21.40;99.90;;;;;;950808;147;27348;-76
2023/09/19 07:02:05;;;;;;;3.35;1.60;;;21.50;99.10;;;;;;951718;147;27285;-76
2023/09/19 07:04:32;;;;;;;4.45;1.92;;;21.60;98.30;;;;;;946007;149;27285;-77
2023/09/19 07:06:58;;;;;;;1.85;1.65;;;21.80;97.70;;;;;;949495;149;27403;-76
2023/09/19 07:09:27;;;;;;;1.50;1.25;;;22.00;97.40;;;;;;948902;148;27392;-77
2023/09/19 07:11:51;;;;;;;2.65;1.27;;;22.10;96.60;;;;;;950059;147;27772;-77
2023/09/19 07:14:18;;;;;;;2.25;1.50;;;22.30;95.80;;;;;;951513;147;27402;-77
2023/09/19 07:16:45;;;;;;;1.62;1.40;;;22.40;95.10;;;;;;945445;146;27344;-76
2023/09/19 07:19:11;;;;;;;2.65;1.50;;;22.60;94.80;;;;;;949304;148;27334;-77
2023/09/19 07:21:38;;;;;;;1.90;1.25;;;22.70;94.40;;;;;;950256;147;27313;-77
2023/09/19 07:24:04;;;;;;;2.12;1.40;;;22.90;93.20;;;;;;949649;148;27318;-77
2023/09/19 07:26:31;;;;;;;2.47;1.35;;;23.10;91.90;;;;;;949820;148;27332;-77
2023/09/19 07:28:58;;;;;;;2.00;1.57;;;23.30;91.00;;;;;;949272;149;27342;-76
2023/09/19 07:31:25;;;;;;;2.08;1.52;;;23.40;90.10;;;;;;943338;149;27429;-78
2023/09/19 07:33:51;;;;;;;2.02;1.35;;;23.50;88.50;;;;;;954651;146;27322;-77
2023/09/19 07:36:17;;;;;;;2.22;1.30;;;23.60;87.50;;;;;;955404;146;27313;-77
2023/09/19 07:38:44;;;;;;;1.95;1.40;;;23.70;86.40;;;;;;929025;150;27382;-76
2023/09/19 07:41:12;;;;;;;2.50;1.65;;;23.80;85.60;;;;;;946221;148;27731;-75
2023/09/19 07:43:41;;;;;;;1.85;1.45;;;23.90;84.80;;;;;;936372;149;27378;-75
2023/09/19 07:46:08;;;;;;;1.10;1.00;;;24.00;84.60;;;;;;937604;149;27449;-76
2023/09/19 07:48:35;;;;;;;1.67;1.22;;;24.10;84.50;;;;;;956288;146;27278;-76
2023/09/19 07:51:06;;;;;;;2.58;1.50;;;24.30;83.50;;;;;;954787;146;27407;-77
2023/09/19 07:53:37;;;;;;;2.37;1.47;;;24.40;82.10;;;;;;949442;146;27348;-75
2023/09/19 07:56:08;;;;;;;1.57;1.42;;;24.50;80.80;;;;;;950037;146;27313;-75
2023/09/19 07:58:35;;;;;;;2.05;1.25;;;24.50;79.20;;;;;;936418;149;27333;-75
2023/09/19 08:01:07;;;;;;;1.22;1.07;;;24.60;77.80;;;;;;954794;146;27446;-77
2023/09/19 08:03:34;;;;;;;1.37;1.27;;;24.60;76.80;;;;;;935783;149;28030;-76
2023/09/19 08:06:00;;;;;;;3.60;1.40;;;24.50;76.10;;;;;;953310;146;27332;-76
2023/09/19 08:08:27;;;;;;;2.08;1.17;;;24.50;75.50;;;;;;944151;148;27419;-76
2023/09/19 08:10:56;;;;;;;1.95;1.65;;;24.40;75.10;;;;;;954386;146;27426;-76
2023/09/19 08:13:26;;;;;;;3.20;1.50;;;24.30;75.10;;;;;;937160;148;27474;-75
2023/09/19 08:15:55;;;;;;;2.40;1.30;;;24.30;74.80;;;;;;937947;149;27408;-75
2023/09/19 08:18:22;;;;;;;1.82;1.30;;;24.30;75.00;;;;;;935566;150;27432;-75
2023/09/19 08:20:51;;;;;;;1.45;1.20;;;24.40;75.10;;;;;;936895;149;27462;-75
2023/09/19 08:23:19;;;;;;;1.10;1.00;;;24.40;74.70;;;;;;952114;146;27658;-75
2023/09/19 08:25:45;;;;;;;1.37;1.10;;;24.50;74.50;;;;;;950955;146;27293;-75
2023/09/19 08:28:12;;;;;;;2.47;1.02;;;24.70;74.00;;;;;;951901;146;27394;-75
2023/09/19 08:30:40;;;;;;;1.27;1.00;;;24.80;73.40;;;;;;934148;149;27480;-77
2023/09/19 08:33:04;;;;;;;1.25;1.00;;;25.00;73.00;;;;;;930427;151;27425;-75
2023/09/19 08:35:31;;;;;;;1.72;1.52;;;25.10;72.30;;;;;;926472;151;27457;-75
2023/09/19 08:37:57;;;;;;;2.17;1.27;;;25.30;71.20;;;;;;946312;149;27383;-76
2023/09/19 08:40:24;;;;;;;1.70;1.17;;;25.50;70.50;;;;;;930217;152;27469;-77
2023/09/19 08:42:54;;;;;;;1.77;1.37;;;25.60;69.50;;;;;;930712;150;27370;-76
2023/09/19 08:45:22;;;;;;;1.30;1.20;;;25.70;68.90;;;;;;925077;151;27399;-76
2023/09/19 08:47:48;;;;;;;3.20;1.37;;;25.80;68.00;;;;;;929179;152;27311;-75
2023/09/19 08:50:25;;;;;;;1.45;1.30;;;25.80;67.10;;;;;;939365;149;27423;-74
2023/09/19 08:52:54;;;;;;;1.87;1.40;;;25.90;66.90;;;;;;928933;151;27359;-76
2023/09/19 08:55:21;;;;;;;1.52;1.32;;;25.90;67.00;;;;;;929974;151;27272;-74
2023/09/19 08:57:48;;;;;;;2.42;1.42;;;26.00;66.40;;;;;;931212;151;27330;-75
2023/09/19 09:00:12;;;;;;;3.62;1.10;;;26.10;66.20;;;;;;930137;151;27370;-74
2023/09/19 09:02:41;;;;;;;2.20;1.50;;;26.20;67.10;;;;;;930473;151;27389;-73
2023/09/19 09:05:10;;;;;;;1.72;1.25;;;26.40;65.90;;;;;;930810;151;27366;-75
2023/09/19 09:07:39;;;;;;;1.50;1.25;;;26.50;65.20;;;;;;926923;151;27815;-74
2023/09/19 09:10:06;;;;;;;1.60;1.32;;;26.70;64.60;;;;;;935960;152;27464;-73
2023/09/19 09:12:33;;;;;;;1.82;1.40;;;27.00;64.60;;;;;;940740;148;28312;-75
2023/09/19 09:14:59;;;;;;;1.92;1.17;;;27.30;64.70;;;;;;935330;149;27313;-74
2023/09/19 09:17:26;;;;;;;2.00;1.20;;;27.60;63.90;;;;;;936543;151;27274;-75
2023/09/19 09:19:52;;;;;;;1.77;1.07;;;27.90;63.70;;;;;;934527;149;27461;-76
2023/09/19 09:22:21;;;;;;;3.02;1.50;;;28.20;62.90;;;;;;939394;148;27341;-75
2023/09/19 09:24:53;;;;;;;2.47;1.27;;;28.50;62.00;;;;;;937661;149;27310;-74
2023/09/19 09:27:18;;;;;;;2.35;1.40;;;28.90;60.90;;;;;;933475;152;27854;-74
2023/09/19 09:29:47;;;;;;;1.47;1.37;;;29.20;60.00;;;;;;940407;150;27312;-74
2023/09/19 09:32:20;;;;;;;3.20;1.50;;;29.50;59.10;;;;;;932424;150;27873;-75
2023/09/19 09:34:52;;;;;;;2.30;1.60;;;29.70;58.50;;;;;;928689;153;27386;-75
2023/09/19 09:37:22;;;;;;;2.27;1.40;;;29.90;57.90;;;;;;920862;151;27335;-74
2023/09/19 09:39:56;;;;;;;2.50;1.50;;;30.00;57.00;;;;;;923864;155;27818;-75
2023/09/19 09:42:36;;;;;;;2.37;1.30;;;30.00;56.20;;;;;;950831;147;27268;-73
2023/09/19 09:47:56;;;;;;;2.12;1.50;;;29.90;56.00;;;;;;917738;149;27448;-76
2023/09/19 09:51:16;;;;;;;2.83;1.37;;;29.80;55.80;;;;;;946685;147;27367;-74
2023/09/19 09:53:02;;;;;;;2.45;1.72;;;29.70;55.50;;;;;;929866;146;27343;-73
2023/09/19 09:55:21;;;;;;;1.85;1.30;;;29.60;55.00;;;;;;935040;149;27322;-74
2023/09/19 09:57:48;;;;;;;1.77;1.22;;;29.50;54.90;;;;;;934195;149;27459;-77
2023/09/19 10:00:20;;;;;;;2.75;1.62;;;29.40;54.70;;;;;;932306;149;27436;-78
2023/09/19 10:02:46;;;;;;;2.58;1.52;;;29.20;54.50;;;;;;937875;149;27349;-78
2023/09/19 10:05:34;;;;;;;1.85;1.25;;;29.10;54.80;;;;;;938439;149;27360;-78
2023/09/19 10:08:04;;;;;;;1.87;1.10;;;29.00;54.40;;;;;;932413;149;27388;-78
2023/09/19 10:13:13;;;;;;;1.92;1.40;;;28.80;53.40;;;;;;930402;150;27361;-78
2023/09/19 10:15:36;;;;;;;1.98;1.42;;;28.60;53.60;;;;;;933032;148;27464;-77
2023/09/19 10:18:02;;;;;;;2.02;1.30;;;28.40;53.70;;;;;;934148;149;27346;-78
2023/09/19 10:20:37;;;;;;;1.92;1.25;;;28.30;53.70;;;;;;933705;149;27377;-78
2023/09/19 10:23:01;;;;;;;1.87;1.60;;;28.20;53.20;;;;;;935543;149;27345;-78
2023/09/19 10:25:30;;;;;;;2.45;1.40;;;28.00;53.30;;;;;;945534;148;27292;-78
2023/09/19 10:27:59;;;;;;;1.75;1.55;;;27.90;53.20;;;;;;933272;149;27449;-77
2023/09/19 10:30:23;;;;;;;1.62;1.50;;;27.80;53.10;;;;;;932564;149;27482;-77
2023/09/19 10:32:50;;;;;;;1.60;1.35;;;27.70;53.30;;;;;;927408;150;27497;-78
2023/09/19 10:35:17;;;;;;;1.62;1.40;;;27.50;53.30;;;;;;943421;147;27351;-79
2023/09/19 10:37:43;;;;;;;6.40;1.90;;;27.40;53.30;;;;;;949722;147;27296;-77
2023/09/19 10:40:11;;;;;;;2.95;1.60;;;27.30;53.40;;;;;;932598;149;27373;-79
2023/09/19 10:42:36;;;;;;;1.90;1.50;;;27.20;53.60;;;;;;929568;150;27410;-78
2023/09/19 10:45:04;;;;;;;2.37;1.52;;;27.10;53.70;;;;;;945531;147;27268;-78
2023/09/19 10:47:30;;;;;;;2.00;1.50;;;27.00;53.90;;;;;;947016;147;27375;-78
2023/09/19 10:49:56;;;;;;;2.62;1.60;;;27.00;54.10;;;;;;926605;150;27496;-79
2023/09/19 10:52:23;;;;;;;2.77;1.50;;;26.90;54.00;;;;;;942061;148;27354;-79
2023/09/19 10:54:51;;;;;;;3.10;1.37;;;26.80;54.00;;;;;;941813;149;27420;-79
2023/09/19 10:57:16;;;;;;;1.40;1.20;;;26.70;54.00;;;;;;941553;150;27411;-78
2023/09/19 10:59:43;;;;;;;2.50;1.75;;;26.60;54.10;;;;;;942562;148;27407;-77
2023/09/19 11:02:18;;;;;;;2.33;1.60;;;26.50;54.20;;;;;;938171;149;27389;-77
2023/09/19 11:04:47;;;;;;;3.20;1.67;;;26.40;54.20;;;;;;952222;147;27388;-78
2023/09/19 11:07:15;;;;;;;2.05;1.60;;;26.30;54.30;;;;;;949972;147;28026;-81
2023/09/19 11:10:01;;;;;;;2.25;1.50;;;26.30;54.30;;;;;;941636;148;27461;-79
2023/09/19 11:12:36;;;;;;;2.72;1.80;;;26.20;54.10;;;;;;932201;149;27371;-80
2023/09/19 11:14:58;;;;;;;5.95;1.57;;;26.20;53.90;;;;;;945322;148;27398;-78
2023/09/19 11:17:31;;;;;;;2.35;1.35;;;26.10;53.60;;;;;;944595;148;27480;-81
2023/09/19 11:25:32;;;;;;;1.22;1.12;;;26.10;53.50;;;;;;953322;146;27295;-80
2023/09/19 11:28:25;;;;;;;3.55;1.55;;;26.10;53.50;;;;;;953186;146;28009;-77
2023/09/19 11:30:39;;;;;;;2.30;1.35;;;26.10;53.40;;;;;;947764;147;27436;-79
2023/09/19 11:33:28;;;;;;;2.20;1.40;;;26.10;53.20;;;;;;948545;145;27427;-81
2023/09/19 11:36:05;;;;;;;2.00;1.70;;;26.10;53.20;;;;;;950463;147;27426;-77
2023/09/19 11:38:52;;;;;;;3.22;1.55;;;26.10;53.30;;;;;;930782;149;27359;-76
2023/09/19 11:41:25;;;;;;;2.05;1.60;;;26.00;53.20;;;;;;946506;147;27337;-79
2023/09/19 11:43:50;;;;;;;1.85;1.35;;;26.00;53.30;;;;;;932715;150;27421;-81
2023/09/19 11:46:17;;;;;;;3.77;1.60;;;26.00;53.40;;;;;;944105;147;27334;-79
2023/09/19 11:48:44;;;;;;;2.37;1.70;;;26.00;53.30;;;;;;949937;147;27320;-77
2023/09/19 11:51:18;;;;;;;2.40;1.50;;;26.10;53.20;;;;;;940888;148;27416;-80
2023/09/19 11:53:38;;;;;;;2.85;1.30;;;26.10;53.20;;;;;;931404;149;27381;-81
2023/09/19 11:56:04;;;;;;;4.37;1.60;;;26.10;53.00;;;;;;946852;147;27317;-80
2023/09/19 11:58:33;;;;;;;2.67;1.45;;;26.10;52.70;;;;;;952367;147;27651;-77
2023/09/19 12:00:58;;;;;;;1.67;1.57;;;26.10;52.60;;;;;;950461;147;27838;-81
2023/09/19 12:03:24;;;;;;;1.98;1.42;;;26.10;52.50;;;;;;943066;148;27313;-79
2023/09/19 12:05:51;;;;;;;2.58;1.70;;;26.00;52.30;;;;;;950205;147;27402;-80
2023/09/19 12:08:21;;;;;;;3.17;1.60;;;26.00;52.40;;;;;;945409;150;27318;-79
2023/09/19 12:10:49;;;;;;;3.08;1.72;;;25.90;52.60;;;;;;946741;147;27329;-81
2023/09/19 12:13:16;;;;;;;2.17;1.50;;;25.90;52.60;;;;;;948365;146;27283;-81
2023/09/19 12:15:45;;;;;;;2.15;1.37;;;25.80;52.30;;;;;;946671;146;27537;-80
2023/09/19 12:18:09;;;;;;;1.87;1.60;;;25.80;52.50;;;;;;945153;146;27342;-77
2023/09/19 12:20:49;;;;;;;2.83;1.60;;;25.80;52.60;;;;;;946061;146;27345;-81
2023/09/19 12:23:15;;;;;;;2.33;1.60;;;25.70;52.50;;;;;;929151;150;27335;-80
2023/09/19 12:25:47;;;;;;;4.87;2.08;;;25.70;52.60;;;;;;942700;149;27295;-79
2023/09/19 12:28:13;;;;;;;2.22;1.37;;;25.80;52.70;;;;;;950536;147;27352;-80
2023/09/19 12:30:41;;;;;;;2.17;1.47;;;25.70;52.50;;;;;;934028;149;27331;-80
2023/09/19 12:33:07;;;;;;;4.62;1.50;;;25.70;52.10;;;;;;950720;146;27470;-79
2023/09/19 12:35:35;;;;;;;2.00;1.80;;;25.70;52.10;;;;;;954613;147;27337;-79
2023/09/19 12:37:59;;;;;;;2.35;1.50;;;25.70;52.00;;;;;;949403;147;27438;-80
2023/09/19 12:40:28;;;;;;;3.02;1.55;;;25.60;52.10;;;;;;944099;147;27335;-80
2023/09/19 12:42:53;;;;;;;2.27;1.30;;;25.60;52.20;;;;;;935400;149;27271;-80
2023/09/19 12:45:19;;;;;;;4.90;1.70;;;25.60;52.80;;;;;;938131;149;27321;-80
2023/09/19 12:48:33;;;;;;;2.45;1.50;;;25.60;52.20;;;;;;937905;149;27321;-76
2023/09/19 12:51:07;;;;;;;3.40;1.30;;;25.60;51.90;;;;;;927698;150;27484;-80
2023/09/19 12:53:50;;;;;;;3.35;1.60;;;25.50;52.10;;;;;;955846;146;27442;-81
2023/09/19 12:56:15;;;;;;;2.52;1.50;;;25.50;52.20;;;;;;951323;146;27371;-80
2023/09/19 12:58:50;;;;;;;3.83;1.82;;;25.50;52.30;;;;;;955161;146;27329;-79
2023/09/19 13:01:17;;;;;;;3.30;1.65;;;25.40;51.80;;;;;;946498;147;27350;-79
2023/09/19 13:03:43;;;;;;;2.60;1.52;;;25.40;51.90;;;;;;948803;146;27735;-77